Time;durP1;ratioP1;P1;durP2;ratioP2;P2;SDS_P1;SDS_P2;PMS_P1;PMS_P2;Temp;Humidity;BMP_temperature;BMP_pressure;BME280_temperature;BME280_humidity;BME280_pressure;Samples;Min_cycle;Max_cycle;Signal;HPM_P1;HPM_P2
2022/09/18 00:00:57;;;;;;;0.50;0.50;;;10.50;99.90;;;;;;4921841;28;20058;-81
2022/09/18 00:03:23;;;;;;;0.47;0.47;;;10.50;99.90;;;;;;4912521;28;20521;-81
2022/09/18 00:05:49;;;;;;;0.50;0.50;;;10.50;99.90;;;;;;4918900;28;20037;-80
2022/09/18 00:08:15;;;;;;;0.50;0.50;;;10.40;99.90;;;;;;4939920;28;20060;-81
2022/09/18 00:10:43;;;;;;;0.50;0.50;;;10.50;99.90;;;;;;4946751;28;20524;-81
2022/09/18 00:13:10;;;;;;;0.50;0.50;;;10.50;99.90;;;;;;4908316;28;20597;-81
2022/09/18 00:15:36;;;;;;;0.50;0.50;;;10.50;99.90;;;;;;4921849;28;20860;-81
2022/09/18 00:18:03;;;;;;;0.50;0.50;;;10.60;99.90;;;;;;4922879;28;20062;-81
2022/09/18 00:20:29;;;;;;;0.50;0.50;;;10.60;99.90;;;;;;4915607;28;20053;-80
2022/09/18 00:22:54;;;;;;;0.50;0.50;;;10.70;99.90;;;;;;4921417;28;20050;-80
2022/09/18 00:25:20;;;;;;;0.50;0.50;;;10.70;99.90;;;;;;4922553;28;20049;-80
2022/09/18 00:27:46;;;;;;;0.50;0.50;;;10.70;99.90;;;;;;4902907;28;20077;-80
2022/09/18 00:30:12;;;;;;;0.50;0.50;;;10.70;99.90;;;;;;4902307;28;20548;-80
2022/09/18 00:32:38;;;;;;;0.60;0.60;;;10.70;99.90;;;;;;4927494;28;20500;-81
2022/09/18 00:35:04;;;;;;;0.50;0.50;;;10.60;99.90;;;;;;4896861;28;20769;-80
2022/09/18 00:37:30;;;;;;;0.50;0.50;;;10.60;99.90;;;;;;4947229;28;20636;-81
2022/09/18 00:39:56;;;;;;;0.50;0.50;;;10.60;99.90;;;;;;4901236;28;20446;-81
2022/09/18 00:42:22;;;;;;;0.50;0.50;;;10.60;99.90;;;;;;4908774;28;20089;-81
2022/09/18 00:44:48;;;;;;;0.50;0.50;;;10.60;99.90;;;;;;4925153;28;20053;-81
2022/09/18 00:47:53;;;;;;;0.55;0.55;;;10.50;99.90;;;;;;4924435;28;20050;-80
2022/09/18 00:50:23;;;;;;;0.50;0.50;;;10.50;99.90;;;;;;4859272;28;20444;-80
2022/09/18 00:53:02;;;;;;;0.50;0.50;;;10.50;99.90;;;;;;4924616;28;20257;-80
2022/09/18 00:55:31;;;;;;;0.50;0.50;;;10.50;99.90;;;;;;4939689;28;20963;-80
2022/09/18 00:57:59;;;;;;;0.50;0.50;;;10.50;99.90;;;;;;4898418;28;20402;-80
2022/09/18 01:00:25;;;;;;;0.50;0.50;;;10.50;99.90;;;;;;4947616;28;20280;-80
2022/09/18 01:02:51;;;;;;;0.50;0.50;;;10.50;99.90;;;;;;4922309;28;20112;-81
2022/09/18 01:05:36;;;;;;;0.50;0.50;;;10.60;99.90;;;;;;4924601;28;20119;-80
2022/09/18 01:08:39;;;;;;;0.50;0.50;;;10.60;99.90;;;;;;4926682;28;20050;-80
2022/09/18 01:11:35;;;;;;;0.50;0.50;;;10.60;99.90;;;;;;4921980;28;20038;-80
2022/09/18 01:14:16;;;;;;;0.50;0.50;;;10.60;99.90;;;;;;4940528;28;20083;-80
2022/09/18 01:17:01;;;;;;;0.50;0.50;;;10.70;99.90;;;;;;4928160;28;20578;-80
2022/09/18 01:19:33;;;;;;;0.50;0.50;;;10.70;99.90;;;;;;4926692;28;20065;-80
2022/09/18 01:22:08;;;;;;;0.50;0.50;;;10.70;99.90;;;;;;4920922;28;20538;-80
2022/09/18 01:24:41;;;;;;;0.50;0.50;;;10.70;99.90;;;;;;4926377;28;20064;-80
2022/09/18 01:27:17;;;;;;;0.50;0.50;;;10.80;99.90;;;;;;4928067;28;20073;-80
2022/09/18 01:29:58;;;;;;;0.50;0.50;;;10.80;99.90;;;;;;4925490;28;20477;-80
2022/09/18 01:32:34;;;;;;;0.50;0.50;;;10.90;99.90;;;;;;4925855;28;20137;-79
2022/09/18 01:35:13;;;;;;;0.50;0.50;;;10.90;99.90;;;;;;4922197;28;20645;-80
2022/09/18 01:38:02;;;;;;;0.50;0.50;;;10.90;99.90;;;;;;4902759;28;20064;-80
2022/09/18 01:40:39;;;;;;;0.50;0.50;;;10.90;99.90;;;;;;4913310;28;20041;-81
2022/09/18 01:43:08;;;;;;;0.50;0.50;;;11.00;99.90;;;;;;4909342;28;20194;-80
2022/09/18 01:45:45;;;;;;;0.50;0.50;;;11.10;99.90;;;;;;4919502;28;20411;-80
2022/09/18 01:48:18;;;;;;;0.50;0.50;;;11.10;99.90;;;;;;4905294;28;20128;-81
2022/09/18 01:50:53;;;;;;;0.50;0.50;;;11.10;99.90;;;;;;4903584;28;20975;-80
2022/09/18 01:53:23;;;;;;;0.50;0.50;;;11.20;99.90;;;;;;4928781;28;20952;-81
2022/09/18 01:56:15;;;;;;;0.50;0.50;;;11.20;99.90;;;;;;4897008;28;20939;-80
2022/09/18 01:58:43;;;;;;;0.50;0.50;;;11.20;99.90;;;;;;4921158;28;20313;-80
2022/09/18 02:01:13;;;;;;;0.50;0.50;;;11.20;99.90;;;;;;4922479;28;20050;-81
2022/09/18 02:03:48;;;;;;;0.50;0.50;;;11.20;99.90;;;;;;4901300;28;20065;-80
2022/09/18 02:06:30;;;;;;;0.50;0.50;;;11.20;99.90;;;;;;4941073;28;20054;-80
2022/09/18 02:08:58;;;;;;;0.50;0.50;;;11.30;99.90;;;;;;4903128;28;20641;-80
2022/09/18 02:11:24;;;;;;;0.50;0.50;;;11.30;99.90;;;;;;4943196;28;20844;-80
2022/09/18 02:14:06;;;;;;;0.50;0.50;;;11.30;99.90;;;;;;4904846;28;20214;-80
2022/09/18 02:16:40;;;;;;;0.50;0.50;;;11.30;99.90;;;;;;4909029;28;20629;-80
2022/09/18 02:19:54;;;;;;;0.50;0.50;;;11.30;99.90;;;;;;4909696;28;20257;-80
2022/09/18 02:22:23;;;;;;;0.50;0.50;;;11.30;99.90;;;;;;4932709;28;20041;-80
2022/09/18 02:24:52;;;;;;;0.50;0.50;;;11.40;99.90;;;;;;4920353;28;20354;-80
2022/09/18 02:27:20;;;;;;;0.50;0.50;;;11.40;99.90;;;;;;4943463;28;20061;-80
2022/09/18 02:29:47;;;;;;;0.50;0.50;;;11.30;99.90;;;;;;4952712;28;21178;-81
2022/09/18 02:32:13;;;;;;;0.50;0.50;;;11.30;99.90;;;;;;4944085;28;21036;-80
2022/09/18 02:34:41;;;;;;;0.50;0.50;;;11.30;99.90;;;;;;4896484;28;20103;-80
2022/09/18 02:37:20;;;;;;;0.50;0.50;;;11.30;99.90;;;;;;4929303;28;20810;-80
2022/09/18 02:40:06;;;;;;;0.50;0.50;;;11.30;99.90;;;;;;4908395;28;20092;-80
2022/09/18 02:42:38;;;;;;;0.50;0.50;;;11.40;99.90;;;;;;4944541;28;20494;-81
2022/09/18 02:45:16;;;;;;;0.50;0.50;;;11.30;99.90;;;;;;4923611;28;20081;-81
2022/09/18 02:48:06;;;;;;;0.50;0.50;;;11.30;99.90;;;;;;4920000;28;20044;-80
2022/09/18 02:51:01;;;;;;;0.50;0.50;;;11.30;99.90;;;;;;4922367;28;20281;-81
2022/09/18 02:53:33;;;;;;;0.50;0.50;;;11.30;99.90;;;;;;4908693;28;20490;-80
2022/09/18 02:56:05;;;;;;;0.50;0.50;;;11.30;99.90;;;;;;4904065;28;20053;-81
2022/09/18 02:58:56;;;;;;;0.50;0.50;;;11.40;99.90;;;;;;4912252;28;20200;-80
2022/09/18 03:01:25;;;;;;;0.50;0.50;;;11.40;99.90;;;;;;4926003;28;20079;-80
2022/09/18 03:03:51;;;;;;;0.50;0.50;;;11.40;99.90;;;;;;4955959;28;20057;-81
2022/09/18 03:06:17;;;;;;;0.50;0.50;;;11.40;99.90;;;;;;4930548;28;20107;-80
2022/09/18 03:08:43;;;;;;;0.50;0.50;;;11.50;99.90;;;;;;4939391;28;20054;-81
2022/09/18 03:11:09;;;;;;;0.50;0.50;;;11.50;99.90;;;;;;4943553;28;20069;-81
2022/09/18 03:13:36;;;;;;;0.50;0.50;;;11.50;99.90;;;;;;4904217;28;20081;-81
2022/09/18 03:16:02;;;;;;;0.50;0.50;;;11.50;99.90;;;;;;4908267;28;20050;-83
2022/09/18 03:18:29;;;;;;;0.50;0.50;;;11.40;99.90;;;;;;4893858;28;20571;-82
2022/09/18 03:20:55;;;;;;;0.50;0.50;;;11.50;99.90;;;;;;4914787;28;21002;-80
2022/09/18 03:23:22;;;;;;;0.50;0.50;;;11.50;99.90;;;;;;4907476;28;20049;-81
2022/09/18 03:25:49;;;;;;;0.50;0.50;;;11.50;99.90;;;;;;4905128;28;20352;-80
2022/09/18 03:28:15;;;;;;;0.47;0.47;;;11.40;99.90;;;;;;4909311;28;20108;-80
2022/09/18 03:30:43;;;;;;;0.50;0.50;;;11.40;99.90;;;;;;4908207;28;20054;-80
2022/09/18 03:33:08;;;;;;;0.50;0.50;;;11.40;99.90;;;;;;4909720;28;20161;-80
2022/09/18 03:35:34;;;;;;;0.50;0.50;;;11.40;99.90;;;;;;4908366;28;20049;-80
2022/09/18 03:38:00;;;;;;;0.50;0.50;;;11.40;99.90;;;;;;4909871;28;20446;-79
2022/09/18 03:40:25;;;;;;;0.50;0.50;;;11.40;99.90;;;;;;4945860;28;20161;-80
2022/09/18 03:42:52;;;;;;;0.50;0.50;;;11.40;99.90;;;;;;4916765;28;20061;-81
2022/09/18 03:45:18;;;;;;;0.47;0.47;;;11.50;99.90;;;;;;4919708;28;20069;-80
2022/09/18 03:47:45;;;;;;;0.50;0.50;;;11.50;99.90;;;;;;4907201;28;20352;-80
2022/09/18 03:50:11;;;;;;;0.50;0.50;;;11.50;99.90;;;;;;4926492;28;20526;-80
2022/09/18 03:52:38;;;;;;;0.50;0.50;;;11.50;99.90;;;;;;4910558;28;20050;-80
2022/09/18 03:55:04;;;;;;;0.50;0.50;;;11.50;99.90;;;;;;4891440;28;20054;-80
2022/09/18 03:57:30;;;;;;;0.50;0.50;;;11.60;99.90;;;;;;4927899;28;20392;-79
2022/09/18 03:59:55;;;;;;;0.50;0.50;;;11.60;99.90;;;;;;4929923;28;20064;-79
2022/09/18 04:02:21;;;;;;;0.50;0.50;;;11.50;99.90;;;;;;4914636;28;20659;-79
2022/09/18 04:04:47;;;;;;;0.50;0.50;;;11.60;99.90;;;;;;4910677;28;20069;-79
2022/09/18 04:07:12;;;;;;;0.50;0.50;;;11.60;99.90;;;;;;4929003;28;20814;-79
2022/09/18 04:09:38;;;;;;;0.50;0.50;;;11.60;99.90;;;;;;4914713;28;20053;-80
2022/09/18 04:12:04;;;;;;;0.50;0.50;;;11.50;99.90;;;;;;4913666;28;20226;-79
2022/09/18 04:14:30;;;;;;;0.50;0.50;;;11.60;99.90;;;;;;4910889;28;20053;-79
2022/09/18 04:16:56;;;;;;;0.50;0.50;;;11.60;99.90;;;;;;4908927;28;20046;-81
2022/09/18 04:19:22;;;;;;;0.50;0.50;;;11.50;99.90;;;;;;4895101;28;20049;-80
2022/09/18 04:21:48;;;;;;;0.50;0.50;;;11.50;99.90;;;;;;4919698;28;20256;-80
2022/09/18 04:24:13;;;;;;;0.50;0.50;;;11.50;99.90;;;;;;4936010;28;20221;-79
2022/09/18 04:26:39;;;;;;;0.50;0.50;;;11.50;99.90;;;;;;4914148;28;20442;-78
2022/09/18 04:29:05;;;;;;;0.50;0.50;;;11.50;99.90;;;;;;4907482;28;20578;-79
2022/09/18 04:31:30;;;;;;;0.50;0.50;;;11.50;99.90;;;;;;4940613;28;20496;-81
2022/09/18 04:33:56;;;;;;;0.50;0.50;;;11.50;99.90;;;;;;4928875;28;20037;-80
2022/09/18 04:36:23;;;;;;;0.50;0.50;;;11.50;99.90;;;;;;4944157;28;20049;-80
2022/09/18 04:38:49;;;;;;;0.60;0.60;;;11.40;99.90;;;;;;4910025;28;20561;-80
2022/09/18 04:41:14;;;;;;;0.50;0.50;;;11.40;99.90;;;;;;4914144;28;20050;-80
2022/09/18 04:43:40;;;;;;;0.50;0.50;;;11.40;99.90;;;;;;4915017;28;20891;-81
2022/09/18 04:46:06;;;;;;;0.50;0.50;;;11.40;99.90;;;;;;4897057;28;20267;-80
2022/09/18 04:48:32;;;;;;;0.50;0.50;;;11.40;99.90;;;;;;4903683;28;20538;-81
2022/09/18 04:50:58;;;;;;;0.50;0.50;;;11.40;99.90;;;;;;4893401;28;20495;-81
2022/09/18 04:53:24;;;;;;;0.50;0.50;;;11.40;99.90;;;;;;4924949;28;20042;-80
2022/09/18 04:55:50;;;;;;;0.50;0.50;;;11.40;99.90;;;;;;4934775;28;20065;-80
2022/09/18 04:58:17;;;;;;;0.50;0.50;;;11.40;99.90;;;;;;4908634;28;20464;-81
2022/09/18 05:00:43;;;;;;;0.50;0.50;;;11.40;99.90;;;;;;4910392;28;20050;-80
2022/09/18 05:03:08;;;;;;;0.50;0.50;;;11.40;99.90;;;;;;4903071;28;20053;-80
2022/09/18 05:05:34;;;;;;;0.50;0.50;;;11.40;99.90;;;;;;4913734;28;20681;-80
2022/09/18 05:08:01;;;;;;;0.50;0.50;;;11.40;99.90;;;;;;4908663;28;20056;-81
2022/09/18 05:10:28;;;;;;;0.60;0.60;;;11.40;99.90;;;;;;4924905;28;20129;-83
2022/09/18 05:12:54;;;;;;;0.50;0.50;;;11.40;99.90;;;;;;4910659;28;20481;-82
2022/09/18 05:15:20;;;;;;;0.50;0.50;;;11.40;99.90;;;;;;4917076;28;20830;-81
2022/09/18 05:17:46;;;;;;;0.50;0.50;;;11.40;99.90;;;;;;4913339;28;20565;-81
2022/09/18 05:20:13;;;;;;;0.50;0.50;;;11.40;99.90;;;;;;4910247;28;20377;-83
2022/09/18 05:22:44;;;;;;;0.50;0.50;;;11.40;99.90;;;;;;4910516;28;20480;-82
2022/09/18 05:25:10;;;;;;;0.50;0.50;;;11.40;99.90;;;;;;4925007;28;20411;-81
2022/09/18 05:27:35;;;;;;;0.50;0.50;;;11.40;99.90;;;;;;4914360;28;20500;-82
2022/09/18 05:30:01;;;;;;;0.50;0.50;;;11.40;99.90;;;;;;4915530;28;20133;-83
2022/09/18 05:32:27;;;;;;;0.50;0.50;;;11.50;99.90;;;;;;4910639;28;20081;-84
2022/09/18 05:34:53;;;;;;;0.50;0.50;;;11.50;99.90;;;;;;4915672;28;20065;-82
2022/09/18 05:37:18;;;;;;;0.50;0.50;;;11.40;99.90;;;;;;4908184;28;20877;-82
2022/09/18 05:39:44;;;;;;;0.50;0.50;;;11.50;99.90;;;;;;4934146;28;20064;-81
2022/09/18 05:42:10;;;;;;;0.50;0.50;;;11.40;99.90;;;;;;4912304;28;20595;-83
2022/09/18 05:44:36;;;;;;;0.50;0.50;;;11.50;99.90;;;;;;4908901;28;20057;-84
2022/09/18 05:47:01;;;;;;;0.50;0.50;;;11.50;99.90;;;;;;4946996;28;20136;-84
2022/09/18 05:49:27;;;;;;;0.50;0.50;;;11.50;99.90;;;;;;4936610;28;20519;-84
2022/09/18 05:51:53;;;;;;;0.50;0.50;;;11.50;99.90;;;;;;4894361;28;20042;-84
2022/09/18 05:54:19;;;;;;;0.50;0.50;;;11.50;99.90;;;;;;4951260;28;20616;-81
2022/09/18 05:56:45;;;;;;;0.50;0.50;;;11.50;99.90;;;;;;4917072;28;21117;-82
2022/09/18 05:59:12;;;;;;;0.50;0.50;;;11.50;99.90;;;;;;4911067;28;20273;-85
2022/09/18 06:01:38;;;;;;;0.40;0.40;;;11.50;99.90;;;;;;4926281;28;20054;-88
2022/09/18 06:04:04;;;;;;;0.50;0.50;;;11.50;99.90;;;;;;4964174;28;20411;-91
2022/09/18 06:06:32;;;;;;;0.50;0.50;;;11.50;99.90;;;;;;4921738;28;20049;-89
2022/09/18 06:08:58;;;;;;;0.50;0.50;;;11.50;99.90;;;;;;4941965;28;20041;-93
2022/09/18 06:11:27;;;;;;;0.50;0.50;;;11.50;99.90;;;;;;4967105;28;20053;-94
2022/09/18 06:13:52;;;;;;;0.50;0.50;;;11.50;99.90;;;;;;4965819;28;20142;-92
2022/09/18 06:16:24;;;;;;;0.50;0.50;;;11.40;99.90;;;;;;4941113;28;20387;-95
2022/09/18 06:18:50;;;;;;;0.50;0.50;;;11.50;99.90;;;;;;4951946;28;20112;-95
2022/09/18 06:21:16;;;;;;;0.50;0.50;;;11.50;99.90;;;;;;4933253;28;21012;-91
2022/09/18 06:23:44;;;;;;;0.50;0.50;;;11.40;99.90;;;;;;4919579;28;20475;-93
2022/09/18 06:30:38;;;;;;;0.50;0.50;;;11.40;99.90;;;;;;4974009;28;20302;-95
2022/09/18 06:33:20;;;;;;;0.50;0.50;;;11.50;99.90;;;;;;4960787;28;20042;-96
2022/09/18 06:40:01;;;;;;;0.50;0.50;;;11.50;99.90;;;;;;5025767;28;20049;-96
2022/09/18 06:42:37;;;;;;;0.50;0.50;;;11.50;99.90;;;;;;4944252;28;20068;-94
2022/09/18 06:49:03;;;;;;;0.50;0.50;;;11.50;99.90;;;;;;4918482;28;20081;-92
2022/09/18 06:51:47;;;;;;;;;;;;;;;;;;;;;
2022/09/18 06:54:30;;;;;;;0.50;0.50;;;11.50;99.90;;;;;;4888151;28;19938;-94
2022/09/18 06:57:05;;;;;;;;;;;11.50;99.90;;;;;;4868619;28;20047;-96
2022/09/18 06:59:39;;;;;;;0.50;0.50;;;11.50;99.90;;;;;;4883151;28;20743;-95
2022/09/18 07:06:31;;;;;;;0.50;0.50;;;11.50;99.90;;;;;;4903814;28;20213;-92
2022/09/18 07:08:57;;;;;;;0.50;0.50;;;11.50;99.90;;;;;;4882330;28;20084;-94
2022/09/18 07:11:26;;;;;;;0.50;0.50;;;11.50;99.90;;;;;;4836082;29;20051;-90
2022/09/18 07:13:53;;;;;;;0.50;0.50;;;11.50;99.90;;;;;;4919916;28;20081;-91
2022/09/18 07:16:21;;;;;;;0.50;0.50;;;11.50;99.90;;;;;;4924140;28;20526;-92
2022/09/18 07:18:59;;;;;;;0.50;0.50;;;11.50;99.90;;;;;;4959612;28;20844;-96
2022/09/18 07:21:25;;;;;;;0.50;0.50;;;11.60;99.90;;;;;;4925374;28;20049;-96
2022/09/18 07:24:17;;;;;;;0.60;0.60;;;11.60;99.90;;;;;;4917015;28;20049;-93
2022/09/18 07:26:43;;;;;;;0.60;0.60;;;11.60;99.90;;;;;;4990808;28;20275;-92
2022/09/18 07:29:09;;;;;;;0.50;0.50;;;11.50;99.90;;;;;;4930922;28;20057;-93
2022/09/18 07:31:42;;;;;;;0.50;0.50;;;11.60;99.90;;;;;;4970871;28;20042;-94
2022/09/18 07:34:24;;;;;;;0.50;0.50;;;11.60;99.90;;;;;;4929008;28;20045;-96
2022/09/18 07:37:24;;;;;;;0.50;0.50;;;11.60;99.90;;;;;;4962216;28;20050;-90
2022/09/18 07:40:15;;;;;;;0.50;0.50;;;11.60;99.90;;;;;;4920704;28;20155;-96
2022/09/18 07:42:41;;;;;;;0.50;0.50;;;11.70;99.90;;;;;;4926853;28;20413;-91
2022/09/18 07:45:13;;;;;;;0.50;0.50;;;11.70;99.90;;;;;;4928060;28;20061;-93
2022/09/18 07:47:38;;;;;;;0.50;0.50;;;11.70;99.90;;;;;;4960411;28;20084;-92
2022/09/18 07:50:24;;;;;;;0.50;0.50;;;11.80;99.90;;;;;;4947891;28;20433;-94
2022/09/18 07:53:06;;;;;;;0.50;0.50;;;11.80;99.90;;;;;;4947832;28;20283;-92
2022/09/18 07:56:16;;;;;;;0.50;0.50;;;11.80;99.90;;;;;;4986774;28;20137;-96
2022/09/18 07:58:45;;;;;;;0.50;0.50;;;11.80;99.90;;;;;;4975035;28;20168;-95
2022/09/18 08:01:11;;;;;;;0.50;0.50;;;11.80;99.90;;;;;;4911473;28;20055;-91
2022/09/18 08:03:43;;;;;;;0.50;0.50;;;11.80;99.90;;;;;;4887145;28;20083;-90
2022/09/18 08:07:02;;;;;;;0.50;0.50;;;11.80;99.90;;;;;;4893253;28;20035;-96
2022/09/18 08:09:56;;;;;;;0.50;0.50;;;11.80;99.90;;;;;;4919874;28;20853;-95
2022/09/18 08:13:14;;;;;;;0.50;0.50;;;11.80;99.90;;;;;;4900069;28;20426;-96
2022/09/18 08:16:24;;;;;;;0.50;0.50;;;11.80;99.90;;;;;;4914294;28;20447;-96
2022/09/18 08:27:02;;;;;;;0.50;0.50;;;11.80;99.90;;;;;;4869115;29;20366;-92
2022/09/18 08:29:49;;;;;;;0.50;0.50;;;11.80;99.90;;;;;;4859656;29;20574;-92
2022/09/18 08:32:20;;;;;;;0.50;0.50;;;11.80;99.90;;;;;;4871792;28;20054;-91
2022/09/18 08:34:49;;;;;;;0.50;0.50;;;11.70;99.90;;;;;;4929346;28;20771;-90
2022/09/18 08:37:18;;;;;;;0.50;0.50;;;11.70;99.90;;;;;;4892023;28;20068;-96
2022/09/18 08:39:49;;;;;;;0.50;0.50;;;11.70;99.90;;;;;;4884744;28;20054;-92
2022/09/18 08:42:24;;;;;;;0.50;0.50;;;11.60;99.90;;;;;;4899575;28;20156;-91
2022/09/18 08:45:15;;;;;;;0.50;0.50;;;11.70;99.90;;;;;;4948601;28;20323;-92
2022/09/18 08:48:25;;;;;;;0.50;0.50;;;11.70;99.90;;;;;;4917559;28;20480;-90
2022/09/18 08:51:23;;;;;;;0.50;0.50;;;11.70;99.90;;;;;;4929783;28;20243;-90
2022/09/18 08:54:36;;;;;;;0.50;0.50;;;11.70;99.90;;;;;;4887502;28;20096;-92
2022/09/18 09:04:31;;;;;;;;;;;;;;;;;;;;;
2022/09/18 09:11:49;;;;;;;0.50;0.50;;;11.80;99.90;;;;;;4869916;29;20048;-96
2022/09/18 09:18:17;;;;;;;0.50;0.50;;;12.00;99.90;;;;;;4823343;29;20075;-89
2022/09/18 09:21:03;;;;;;;0.50;0.50;;;12.00;99.90;;;;;;4808018;29;20107;-91
2022/09/18 09:24:19;;;;;;;;;;;;;;;;;;;;;
2022/09/18 09:27:17;;;;;;;0.50;0.50;;;11.90;99.90;;;;;;4940811;28;20054;-96
2022/09/18 09:30:05;;;;;;;;;;;;;;;;;;;;;
2022/09/18 09:33:26;;;;;;;0.50;0.50;;;12.10;99.90;;;;;;4947566;28;20046;-93
2022/09/18 09:36:42;;;;;;;0.50;0.50;;;12.10;99.90;;;;;;4877011;29;20504;-96
2022/09/18 09:39:58;;;;;;;0.50;0.50;;;12.10;99.90;;;;;;4871350;29;20407;-96
2022/09/18 09:47:15;;;;;;;0.50;0.50;;;12.00;99.90;;;;;;4729811;30;20055;-96
2022/09/18 09:53:39;;;;;;;0.50;0.50;;;12.00;99.90;;;;;;4780801;29;20224;-96
2022/09/18 10:11:19;;;;;;;0.50;0.50;;;11.90;99.90;;;;;;4891771;29;20096;-96
2022/09/18 10:14:03;;;;;;;0.50;0.50;;;11.90;99.90;;;;;;4904936;28;20421;-94
2022/09/18 10:20:48;;;;;;;0.50;0.50;;;11.90;99.90;;;;;;4899986;28;20094;-96
2022/09/18 10:44:31;;;;;;;0.50;0.50;;;12.00;99.90;;;;;;4848456;29;20525;-90
2022/09/18 10:55:13;;;;;;;0.50;0.50;;;12.00;99.90;;;;;;4887082;29;20108;-95
2022/09/18 11:09:00;;;;;;;0.50;0.50;;;12.10;99.90;;;;;;4717997;30;20110;-96
2022/09/18 11:11:36;;;;;;;0.50;0.50;;;12.20;99.90;;;;;;4697277;30;20057;-96
2022/09/18 11:14:55;;;;;;;0.50;0.50;;;12.20;99.90;;;;;;4723260;29;20096;-96
2022/09/18 11:17:51;;;;;;;0.50;0.50;;;12.20;99.90;;;;;;4761536;29;20050;-92
2022/09/18 11:20:21;;;;;;;0.50;0.50;;;12.30;99.90;;;;;;4815259;29;20136;-96
2022/09/18 11:22:50;;;;;;;0.50;0.50;;;12.30;99.90;;;;;;4790711;29;20072;-94
2022/09/18 11:25:19;;;;;;;0.50;0.50;;;12.30;99.90;;;;;;4810177;29;20055;-96
2022/09/18 11:27:50;;;;;;;0.50;0.50;;;12.30;99.90;;;;;;4946224;28;20053;-89
2022/09/18 11:30:21;;;;;;;0.50;0.50;;;12.30;99.90;;;;;;4990927;28;20064;-91
2022/09/18 11:32:51;;;;;;;0.50;0.50;;;12.30;99.90;;;;;;4985093;28;20129;-87
2022/09/18 11:35:31;;;;;;;0.50;0.50;;;12.40;99.90;;;;;;4995925;28;20056;-93
2022/09/18 11:38:06;;;;;;;0.50;0.50;;;12.40;99.90;;;;;;4982512;28;20107;-89
2022/09/18 11:40:51;;;;;;;0.50;0.50;;;12.50;99.90;;;;;;4976089;28;20037;-92
2022/09/18 11:43:29;;;;;;;0.50;0.50;;;12.50;99.90;;;;;;4993177;28;20514;-92
2022/09/18 11:46:04;;;;;;;0.50;0.50;;;12.60;99.90;;;;;;4967519;28;20061;-96
2022/09/18 11:49:11;;;;;;;0.50;0.50;;;12.60;99.90;;;;;;4995161;28;20049;-94
2022/09/18 11:52:00;;;;;;;0.50;0.50;;;12.70;99.90;;;;;;4946619;28;20056;-92
2022/09/18 11:54:55;;;;;;;0.50;0.50;;;12.60;99.90;;;;;;4958836;28;20041;-96
2022/09/18 11:57:30;;;;;;;0.50;0.50;;;12.80;99.90;;;;;;4999022;28;20139;-90
2022/09/18 12:00:06;;;;;;;0.50;0.50;;;12.80;99.90;;;;;;4953891;28;20104;-92
2022/09/18 12:02:53;;;;;;;0.50;0.50;;;12.90;99.90;;;;;;4947968;28;20483;-87
2022/09/18 12:05:51;;;;;;;0.50;0.50;;;12.90;99.90;;;;;;4954813;28;20054;-88
2022/09/18 12:08:47;;;;;;;0.50;0.50;;;13.00;99.90;;;;;;4940395;28;20230;-96
2022/09/18 12:11:13;;;;;;;0.50;0.50;;;13.00;99.90;;;;;;4997749;28;20109;-85
2022/09/18 12:14:12;;;;;;;0.50;0.50;;;13.00;99.90;;;;;;4973084;28;20045;-84
2022/09/18 12:16:59;;;;;;;0.50;0.50;;;13.20;99.90;;;;;;4956649;28;20055;-91
2022/09/18 12:19:37;;;;;;;0.43;0.43;;;13.30;99.90;;;;;;4990392;28;20042;-86
2022/09/18 12:22:34;;;;;;;0.50;0.50;;;13.20;99.90;;;;;;4985559;28;20132;-94
2022/09/18 12:25:00;;;;;;;0.50;0.50;;;13.30;99.90;;;;;;4985610;28;20388;-89
2022/09/18 12:27:41;;;;;;;0.50;0.50;;;13.40;99.90;;;;;;4968976;28;20060;-85
2022/09/18 12:30:11;;;;;;;0.50;0.50;;;13.40;99.90;;;;;;4975246;28;20074;-89
2022/09/18 12:32:46;;;;;;;0.50;0.50;;;13.40;99.90;;;;;;4953338;28;20072;-85
2022/09/18 12:35:41;;;;;;;0.47;0.47;;;13.50;99.90;;;;;;4963381;28;20057;-86
2022/09/18 12:38:26;;;;;;;0.50;0.50;;;13.60;99.90;;;;;;4905939;28;20659;-86
2022/09/18 12:41:23;;;;;;;0.50;0.50;;;13.60;99.90;;;;;;4955798;28;20089;-87
2022/09/18 12:44:28;;;;;;;0.50;0.50;;;13.60;99.90;;;;;;4999555;28;20151;-88
2022/09/18 12:47:02;;;;;;;;;;;13.60;99.90;;;;;;4945406;28;20074;-95
2022/09/18 12:49:57;;;;;;;;;;;13.70;99.90;;;;;;4953875;28;20375;-92
2022/09/18 12:52:56;;;;;;;0.50;0.50;;;13.70;99.90;;;;;;4945162;28;20859;-90
2022/09/18 12:55:44;;;;;;;0.50;0.50;;;13.70;99.90;;;;;;4930765;28;20041;-82
2022/09/18 12:58:35;;;;;;;0.50;0.50;;;13.70;99.90;;;;;;4944508;28;20462;-82
2022/09/18 13:01:11;;;;;;;0.50;0.50;;;13.70;99.90;;;;;;4972791;28;20529;-90
2022/09/18 13:03:40;;;;;;;0.47;0.47;;;13.80;99.90;;;;;;4983249;28;20490;-91
2022/09/18 13:06:08;;;;;;;0.50;0.50;;;13.80;99.90;;;;;;4991955;28;20050;-89
2022/09/18 13:08:57;;;;;;;0.50;0.50;;;13.70;99.90;;;;;;4919068;28;20041;-87
2022/09/18 13:11:41;;;;;;;0.47;0.47;;;13.80;99.90;;;;;;4897473;28;20069;-85
2022/09/18 13:14:16;;;;;;;0.50;0.50;;;13.70;99.90;;;;;;4912819;28;20054;-82
2022/09/18 13:16:49;;;;;;;0.40;0.40;;;13.80;99.90;;;;;;4934672;28;20401;-84
2022/09/18 13:19:24;;;;;;;0.40;0.40;;;13.70;99.90;;;;;;4907536;28;20407;-86
2022/09/18 13:21:52;;;;;;;0.50;0.50;;;13.70;99.90;;;;;;4959923;28;20573;-93
2022/09/18 13:24:32;;;;;;;0.50;0.50;;;13.70;99.90;;;;;;4903539;28;20436;-85
2022/09/18 13:27:01;;;;;;;0.50;0.50;;;13.70;99.90;;;;;;4921569;28;20157;-85
2022/09/18 13:29:52;;;;;;;0.50;0.50;;;13.70;99.90;;;;;;4940373;28;20545;-85
2022/09/18 13:32:29;;;;;;;0.50;0.50;;;13.60;99.90;;;;;;4932039;28;20560;-86
2022/09/18 13:34:59;;;;;;;0.40;0.40;;;13.60;99.90;;;;;;4951853;28;20061;-89
2022/09/18 13:37:27;;;;;;;0.40;0.40;;;13.60;99.90;;;;;;4934588;28;20081;-82
2022/09/18 13:39:58;;;;;;;0.40;0.40;;;13.60;99.90;;;;;;4913034;28;20057;-83
2022/09/18 13:42:35;;;;;;;0.40;0.40;;;13.70;99.90;;;;;;4916730;28;20089;-86
2022/09/18 13:45:18;;;;;;;0.50;0.50;;;13.60;99.90;;;;;;4923201;28;20863;-82
2022/09/18 13:48:13;;;;;;;0.40;0.40;;;13.60;99.90;;;;;;4914960;28;20564;-83
2022/09/18 13:50:54;;;;;;;0.40;0.40;;;13.70;99.90;;;;;;4900194;28;20061;-85
2022/09/18 13:53:40;;;;;;;0.40;0.40;;;13.70;99.90;;;;;;4912850;28;20463;-84
2022/09/18 13:56:15;;;;;;;0.50;0.50;;;13.70;99.90;;;;;;4926132;28;20053;-84
2022/09/18 13:58:54;;;;;;;0.50;0.50;;;13.60;99.90;;;;;;4910135;28;20832;-84
2022/09/18 14:01:39;;;;;;;0.50;0.50;;;13.60;99.90;;;;;;4921589;28;20046;-85
2022/09/18 14:04:39;;;;;;;0.50;0.50;;;13.60;99.90;;;;;;4910678;28;20051;-85
2022/09/18 14:07:17;;;;;;;0.50;0.50;;;13.60;99.90;;;;;;4919071;28;20272;-84
2022/09/18 14:09:46;;;;;;;0.50;0.50;;;13.60;99.90;;;;;;4910552;28;20049;-81
2022/09/18 14:12:14;;;;;;;0.40;0.40;;;13.60;99.90;;;;;;4926610;28;20773;-86
2022/09/18 14:14:40;;;;;;;0.40;0.40;;;13.50;99.90;;;;;;4936425;28;20444;-83
2022/09/18 14:17:14;;;;;;;0.40;0.40;;;13.50;99.90;;;;;;4893671;28;20054;-82
2022/09/18 14:19:42;;;;;;;;;;;13.40;99.90;;;;;;4926075;28;20050;-80
2022/09/18 14:22:29;;;;;;;0.50;0.50;;;13.40;99.90;;;;;;4894996;28;20922;-83
2022/09/18 14:24:59;;;;;;;0.50;0.50;;;13.40;99.90;;;;;;4922193;28;20601;-84
2022/09/18 14:27:40;;;;;;;0.50;0.50;;;13.40;99.90;;;;;;4938874;28;20057;-82
2022/09/18 14:30:27;;;;;;;0.50;0.50;;;13.30;99.90;;;;;;4996971;28;20054;-86
2022/09/18 14:33:18;;;;;;;0.50;0.50;;;13.40;99.90;;;;;;4929263;28;20630;-82
2022/09/18 14:36:04;;;;;;;0.50;0.50;;;13.40;99.90;;;;;;4919195;28;20104;-85
2022/09/18 14:38:35;;;;;;;0.40;0.40;;;13.40;99.90;;;;;;4919354;28;20045;-84
2022/09/18 14:41:08;;;;;;;0.50;0.50;;;13.40;99.90;;;;;;4968252;28;20038;-85
2022/09/18 14:43:37;;;;;;;0.40;0.40;;;13.40;99.90;;;;;;4914794;28;20104;-81
2022/09/18 14:46:05;;;;;;;0.43;0.43;;;13.30;99.90;;;;;;4941438;28;20473;-81
2022/09/18 14:48:36;;;;;;;0.50;0.50;;;13.40;99.90;;;;;;4939369;28;20141;-82
2022/09/18 14:51:20;;;;;;;0.50;0.50;;;13.40;99.90;;;;;;4964505;28;20057;-82
2022/09/18 14:53:51;;;;;;;0.40;0.40;;;13.40;99.90;;;;;;4949504;28;20045;-82
2022/09/18 14:56:24;;;;;;;0.50;0.50;;;13.50;99.90;;;;;;4938638;28;20514;-82
2022/09/18 14:58:51;;;;;;;0.50;0.50;;;13.40;99.90;;;;;;4932824;28;20812;-82
2022/09/18 15:01:23;;;;;;;0.50;0.50;;;13.40;99.90;;;;;;4903236;28;20296;-81
2022/09/18 15:03:51;;;;;;;0.50;0.50;;;13.40;99.90;;;;;;4908735;28;20818;-81
2022/09/18 15:06:22;;;;;;;0.50;0.50;;;13.40;99.90;;;;;;4914575;28;20660;-82
2022/09/18 15:08:51;;;;;;;0.40;0.40;;;13.30;99.90;;;;;;4927084;28;20088;-82
2022/09/18 15:11:20;;;;;;;0.40;0.40;;;13.30;99.90;;;;;;4944532;28;21094;-82
2022/09/18 15:13:50;;;;;;;0.50;0.50;;;13.30;99.90;;;;;;4942306;28;20273;-80
2022/09/18 15:16:26;;;;;;;0.50;0.50;;;13.30;99.90;;;;;;4887000;28;20061;-87
2022/09/18 15:18:52;;;;;;;0.50;0.50;;;13.20;99.90;;;;;;4891976;28;20444;-84
2022/09/18 15:21:21;;;;;;;0.50;0.50;;;13.10;99.90;;;;;;4915518;28;20436;-83
2022/09/18 15:23:47;;;;;;;0.50;0.50;;;13.00;99.90;;;;;;4923457;28;20496;-86